sensor_id;sensor_type;location;lat;lon;timestamp;pressure;altitude;pressure_sealevel;temperature;humidity
75551;BME280;65071;53.082;18.218;2023-11-21T00:02:02;100695.40;;;1.13;96.71
75551;BME280;65071;53.082;18.218;2023-11-21T00:04:30;100696.48;;;1.10;96.82
75551;BME280;65071;53.082;18.218;2023-11-21T00:06:56;100694.70;;;1.05;96.43
75551;BME280;65071;53.082;18.218;2023-11-21T00:09:23;100699.39;;;1.01;96.63
75551;BME280;65071;53.082;18.218;2023-11-21T00:11:49;100696.63;;;0.99;96.68
75551;BME280;65071;53.082;18.218;2023-11-21T00:14:16;100694.91;;;0.99;96.99
75551;BME280;65071;53.082;18.218;2023-11-21T00:16:42;100700.86;;;0.97;96.78
75551;BME280;65071;53.082;18.218;2023-11-21T00:19:09;100707.27;;;0.99;96.96
75551;BME280;65071;53.082;18.218;2023-11-21T00:21:35;100714.23;;;0.98;96.89
75551;BME280;65071;53.082;18.218;2023-11-21T00:24:02;100722.08;;;1.00;96.90
75551;BME280;65071;53.082;18.218;2023-11-21T00:26:29;100727.23;;;1.00;97.13
75551;BME280;65071;53.082;18.218;2023-11-21T00:29:01;100727.65;;;0.98;97.36
75551;BME280;65071;53.082;18.218;2023-11-21T00:31:27;100731.80;;;0.97;97.59
75551;BME280;65071;53.082;18.218;2023-11-21T00:33:54;100728.89;;;0.99;97.50
75551;BME280;65071;53.082;18.218;2023-11-21T00:36:20;100724.52;;;1.01;97.37
75551;BME280;65071;53.082;18.218;2023-11-21T00:38:47;100726.71;;;1.00;97.57
75551;BME280;65071;53.082;18.218;2023-11-21T00:41:14;100722.09;;;1.00;97.64
75551;BME280;65071;53.082;18.218;2023-11-21T00:43:41;100726.61;;;1.01;97.72
75551;BME280;65071;53.082;18.218;2023-11-21T00:46:07;100728.77;;;1.03;97.81
75551;BME280;65071;53.082;18.218;2023-11-21T00:48:33;100736.36;;;1.04;97.85
75551;BME280;65071;53.082;18.218;2023-11-21T00:51:00;100741.35;;;1.06;97.45
75551;BME280;65071;53.082;18.218;2023-11-21T00:53:27;100746.10;;;1.04;98.00
75551;BME280;65071;53.082;18.218;2023-11-21T00:55:53;100749.78;;;1.02;98.39
75551;BME280;65071;53.082;18.218;2023-11-21T00:58:26;100754.09;;;1.01;98.51
75551;BME280;65071;53.082;18.218;2023-11-21T01:00:53;100755.81;;;0.93;98.32
75551;BME280;65071;53.082;18.218;2023-11-21T01:03:20;100755.89;;;0.94;98.39
75551;BME280;65071;53.082;18.218;2023-11-21T01:05:46;100757.73;;;0.93;98.41
75551;BME280;65071;53.082;18.218;2023-11-21T01:08:13;100757.61;;;0.92;98.61
75551;BME280;65071;53.082;18.218;2023-11-21T01:10:39;100758.09;;;0.90;98.65
75551;BME280;65071;53.082;18.218;2023-11-21T01:13:05;100761.14;;;0.84;98.38
75551;BME280;65071;53.082;18.218;2023-11-21T01:15:34;100762.59;;;0.83;98.06
75551;BME280;65071;53.082;18.218;2023-11-21T01:18:00;100769.86;;;0.80;97.47
75551;BME280;65071;53.082;18.218;2023-11-21T01:20:27;100771.12;;;0.77;97.53
75551;BME280;65071;53.082;18.218;2023-11-21T01:22:53;100774.69;;;0.76;97.48
75551;BME280;65071;53.082;18.218;2023-11-21T01:25:21;100775.45;;;0.78;97.55
75551;BME280;65071;53.082;18.218;2023-11-21T01:27:48;100778.37;;;0.80;97.56
75551;BME280;65071;53.082;18.218;2023-11-21T01:30:15;100779.19;;;0.78;97.78
75551;BME280;65071;53.082;18.218;2023-11-21T01:32:42;100784.21;;;0.77;97.82
75551;BME280;65071;53.082;18.218;2023-11-21T01:35:10;100783.95;;;0.75;98.07
75551;BME280;65071;53.082;18.218;2023-11-21T01:37:37;100784.40;;;0.77;97.67
75551;BME280;65071;53.082;18.218;2023-11-21T01:40:05;100786.54;;;0.77;98.23
75551;BME280;65071;53.082;18.218;2023-11-21T01:42:36;100787.26;;;0.73;98.91
75551;BME280;65071;53.082;18.218;2023-11-21T01:45:02;100788.96;;;0.74;98.57
75551;BME280;65071;53.082;18.218;2023-11-21T01:47:33;100786.48;;;0.74;98.53
75551;BME280;65071;53.082;18.218;2023-11-21T01:50:00;100788.73;;;0.72;98.59
75551;BME280;65071;53.082;18.218;2023-11-21T01:52:28;100795.13;;;0.72;98.51
75551;BME280;65071;53.082;18.218;2023-11-21T01:54:58;100793.95;;;0.74;97.96
75551;BME280;65071;53.082;18.218;2023-11-21T01:57:25;100788.73;;;0.75;97.67
75551;BME280;65071;53.082;18.218;2023-11-21T01:59:54;100787.55;;;0.78;97.79
75551;BME280;65071;53.082;18.218;2023-11-21T02:02:20;100795.89;;;0.74;97.17
75551;BME280;65071;53.082;18.218;2023-11-21T02:04:47;100800.55;;;0.73;97.52
75551;BME280;65071;53.082;18.218;2023-11-21T02:07:14;100802.25;;;0.71;97.21
75551;BME280;65071;53.082;18.218;2023-11-21T02:09:40;100802.63;;;0.71;97.95
75551;BME280;65071;53.082;18.218;2023-11-21T02:12:09;100800.90;;;0.73;97.93
75551;BME280;65071;53.082;18.218;2023-11-21T02:14:36;100798.25;;;0.76;97.74
75551;BME280;65071;53.082;18.218;2023-11-21T02:17:03;100794.95;;;0.69;97.31
75551;BME280;65071;53.082;18.218;2023-11-21T02:19:31;100794.98;;;0.69;96.98
75551;BME280;65071;53.082;18.218;2023-11-21T02:21:59;100798.14;;;0.65;96.96
75551;BME280;65071;53.082;18.218;2023-11-21T02:24:30;100803.17;;;0.62;96.66
75551;BME280;65071;53.082;18.218;2023-11-21T02:26:57;100803.58;;;0.58;96.61
75551;BME280;65071;53.082;18.218;2023-11-21T02:29:23;100810.02;;;0.59;96.62
75551;BME280;65071;53.082;18.218;2023-11-21T02:31:55;100810.19;;;0.57;96.94
75551;BME280;65071;53.082;18.218;2023-11-21T02:34:22;100813.08;;;0.56;97.32
75551;BME280;65071;53.082;18.218;2023-11-21T02:36:49;100816.36;;;0.54;97.58
75551;BME280;65071;53.082;18.218;2023-11-21T02:39:17;100816.00;;;0.54;97.57
75551;BME280;65071;53.082;18.218;2023-11-21T02:41:44;100819.23;;;0.56;97.19
75551;BME280;65071;53.082;18.218;2023-11-21T02:44:11;100817.74;;;0.58;97.06
75551;BME280;65071;53.082;18.218;2023-11-21T02:46:38;100819.46;;;0.58;96.67
75551;BME280;65071;53.082;18.218;2023-11-21T02:49:06;100828.30;;;0.58;96.56
75551;BME280;65071;53.082;18.218;2023-11-21T02:51:33;100835.70;;;0.56;95.98
75551;BME280;65071;53.082;18.218;2023-11-21T02:54:00;100836.21;;;0.56;96.15
75551;BME280;65071;53.082;18.218;2023-11-21T02:56:32;100839.52;;;0.57;96.11
75551;BME280;65071;53.082;18.218;2023-11-21T02:58:59;100843.83;;;0.59;96.01
75551;BME280;65071;53.082;18.218;2023-11-21T03:01:27;100843.81;;;0.60;95.64
75551;BME280;65071;53.082;18.218;2023-11-21T03:03:54;100848.95;;;0.59;95.44
75551;BME280;65071;53.082;18.218;2023-11-21T03:06:22;100845.96;;;0.56;94.88
75551;BME280;65071;53.082;18.218;2023-11-21T03:08:49;100843.31;;;0.56;94.75
75551;BME280;65071;53.082;18.218;2023-11-21T03:11:16;100846.39;;;0.58;94.97
75551;BME280;65071;53.082;18.218;2023-11-21T03:13:44;100849.12;;;0.56;94.66
75551;BME280;65071;53.082;18.218;2023-11-21T03:16:12;100848.67;;;0.55;94.14
75551;BME280;65071;53.082;18.218;2023-11-21T03:18:40;100858.10;;;0.54;93.47
75551;BME280;65071;53.082;18.218;2023-11-21T03:21:08;100859.48;;;0.52;93.50
75551;BME280;65071;53.082;18.218;2023-11-21T03:23:36;100865.39;;;0.51;93.41
75551;BME280;65071;53.082;18.218;2023-11-21T03:26:04;100866.98;;;0.48;93.21
75551;BME280;65071;53.082;18.218;2023-11-21T03:28:30;100870.34;;;0.48;93.49
75551;BME280;65071;53.082;18.218;2023-11-21T03:30:57;100868.98;;;0.49;93.73
75551;BME280;65071;53.082;18.218;2023-11-21T03:33:24;100867.66;;;0.51;93.64
75551;BME280;65071;53.082;18.218;2023-11-21T03:35:51;100871.13;;;0.52;93.53
75551;BME280;65071;53.082;18.218;2023-11-21T03:38:19;100867.95;;;0.49;93.30
75551;BME280;65071;53.082;18.218;2023-11-21T03:40:45;100873.92;;;0.47;92.47
75551;BME280;65071;53.082;18.218;2023-11-21T03:43:12;100867.20;;;0.47;92.90
75551;BME280;65071;53.082;18.218;2023-11-21T03:45:39;100867.23;;;0.46;92.83
75551;BME280;65071;53.082;18.218;2023-11-21T03:48:07;100868.60;;;0.44;92.66
75551;BME280;65071;53.082;18.218;2023-11-21T03:50:35;100864.65;;;0.45;92.84
75551;BME280;65071;53.082;18.218;2023-11-21T03:55:30;100862.73;;;0.45;92.80
75551;BME280;65071;53.082;18.218;2023-11-21T03:57:58;100860.51;;;0.40;92.35
75551;BME280;65071;53.082;18.218;2023-11-21T04:00:25;100865.64;;;0.37;92.34
75551;BME280;65071;53.082;18.218;2023-11-21T04:02:54;100869.84;;;0.38;92.63
75551;BME280;65071;53.082;18.218;2023-11-21T04:05:21;100871.33;;;0.36;92.38
75551;BME280;65071;53.082;18.218;2023-11-21T04:07:49;100873.23;;;0.37;92.01
75551;BME280;65071;53.082;18.218;2023-11-21T04:10:17;100875.35;;;0.37;92.17
75551;BME280;65071;53.082;18.218;2023-11-21T04:12:45;100882.60;;;0.31;91.87
75551;BME280;65071;53.082;18.218;2023-11-21T04:15:12;100884.84;;;0.29;92.17
75551;BME280;65071;53.082;18.218;2023-11-21T04:17:41;100883.39;;;0.30;92.14
75551;BME280;65071;53.082;18.218;2023-11-21T04:20:08;100883.61;;;0.26;91.76
75551;BME280;65071;53.082;18.218;2023-11-21T04:22:37;100886.34;;;0.28;92.11
75551;BME280;65071;53.082;18.218;2023-11-21T04:25:10;100888.33;;;0.21;91.46
75551;BME280;65071;53.082;18.218;2023-11-21T04:27:41;100892.86;;;0.22;91.60
75551;BME280;65071;53.082;18.218;2023-11-21T04:30:11;100891.84;;;0.24;91.80
75551;BME280;65071;53.082;18.218;2023-11-21T04:32:38;100896.23;;;0.21;91.75
75551;BME280;65071;53.082;18.218;2023-11-21T04:35:06;100903.39;;;0.23;92.12
75551;BME280;65071;53.082;18.218;2023-11-21T04:37:32;100907.20;;;0.21;91.44
75551;BME280;65071;53.082;18.218;2023-11-21T04:39:58;100913.97;;;0.20;90.80
75551;BME280;65071;53.082;18.218;2023-11-21T04:42:25;100921.19;;;0.21;90.79
75551;BME280;65071;53.082;18.218;2023-11-21T04:44:51;100923.04;;;0.16;89.94
75551;BME280;65071;53.082;18.218;2023-11-21T04:47:19;100925.90;;;0.09;89.64
75551;BME280;65071;53.082;18.218;2023-11-21T04:49:46;100921.30;;;0.10;89.75
75551;BME280;65071;53.082;18.218;2023-11-21T04:52:16;100923.21;;;0.13;89.79
75551;BME280;65071;53.082;18.218;2023-11-21T04:54:42;100931.05;;;0.09;88.98
75551;BME280;65071;53.082;18.218;2023-11-21T04:57:09;100929.15;;;0.08;88.97
75551;BME280;65071;53.082;18.218;2023-11-21T04:59:36;100934.52;;;0.07;88.88
75551;BME280;65071;53.082;18.218;2023-11-21T05:02:02;100939.66;;;0.03;88.58
75551;BME280;65071;53.082;18.218;2023-11-21T05:04:29;100942.86;;;-0.00;88.93
75551;BME280;65071;53.082;18.218;2023-11-21T05:06:55;100951.17;;;-0.00;89.08
75551;BME280;65071;53.082;18.218;2023-11-21T05:09:22;100955.09;;;-0.01;88.97
75551;BME280;65071;53.082;18.218;2023-11-21T05:11:49;100960.43;;;-0.02;89.14
75551;BME280;65071;53.082;18.218;2023-11-21T05:14:16;100964.31;;;0.02;89.27
75551;BME280;65071;53.082;18.218;2023-11-21T05:16:44;100969.25;;;-0.01;89.09
75551;BME280;65071;53.082;18.218;2023-11-21T05:19:11;100971.69;;;-0.01;89.76
75551;BME280;65071;53.082;18.218;2023-11-21T05:21:38;100967.60;;;0.00;89.84
75551;BME280;65071;53.082;18.218;2023-11-21T05:24:05;100973.73;;;0.01;89.94
75551;BME280;65071;53.082;18.218;2023-11-21T05:26:32;100971.41;;;-0.02;89.55
75551;BME280;65071;53.082;18.218;2023-11-21T05:28:58;100967.80;;;-0.04;89.42
75551;BME280;65071;53.082;18.218;2023-11-21T05:31:25;100968.48;;;-0.07;89.27
75551;BME280;65071;53.082;18.218;2023-11-21T05:33:51;100970.81;;;-0.07;89.57
75551;BME280;65071;53.082;18.218;2023-11-21T05:36:17;100974.16;;;-0.07;89.27
75551;BME280;65071;53.082;18.218;2023-11-21T05:38:44;100979.03;;;-0.06;89.34
75551;BME280;65071;53.082;18.218;2023-11-21T05:41:10;100984.96;;;-0.04;89.38
75551;BME280;65071;53.082;18.218;2023-11-21T05:43:40;100984.17;;;-0.09;88.89
75551;BME280;65071;53.082;18.218;2023-11-21T05:46:06;100984.91;;;-0.10;89.23
75551;BME280;65071;53.082;18.218;2023-11-21T05:48:33;100992.31;;;-0.13;89.30
75551;BME280;65071;53.082;18.218;2023-11-21T05:51:05;100992.41;;;-0.11;89.04
75551;BME280;65071;53.082;18.218;2023-11-21T05:53:31;100997.98;;;-0.10;89.04
75551;BME280;65071;53.082;18.218;2023-11-21T05:55:57;100998.52;;;-0.10;88.98
75551;BME280;65071;53.082;18.218;2023-11-21T05:58:24;101006.30;;;-0.10;88.86
75551;BME280;65071;53.082;18.218;2023-11-21T06:00:50;101014.34;;;-0.12;88.71
75551;BME280;65071;53.082;18.218;2023-11-21T06:03:17;101012.89;;;-0.14;88.80
75551;BME280;65071;53.082;18.218;2023-11-21T06:05:43;101011.21;;;-0.13;89.05
75551;BME280;65071;53.082;18.218;2023-11-21T06:08:10;101007.88;;;-0.13;88.74
75551;BME280;65071;53.082;18.218;2023-11-21T06:10:37;101016.71;;;-0.16;87.89
75551;BME280;65071;53.082;18.218;2023-11-21T06:13:03;101020.00;;;-0.18;88.18
75551;BME280;65071;53.082;18.218;2023-11-21T06:15:30;101028.66;;;-0.15;88.36
75551;BME280;65071;53.082;18.218;2023-11-21T06:17:56;101039.02;;;-0.14;88.04
75551;BME280;65071;53.082;18.218;2023-11-21T06:20:23;101044.89;;;-0.11;88.23
75551;BME280;65071;53.082;18.218;2023-11-21T06:22:50;101051.89;;;-0.10;87.82
75551;BME280;65071;53.082;18.218;2023-11-21T06:25:17;101055.68;;;-0.11;87.08
75551;BME280;65071;53.082;18.218;2023-11-21T06:27:47;101055.14;;;-0.14;86.19
75551;BME280;65071;53.082;18.218;2023-11-21T06:30:15;101059.77;;;-0.15;87.01
75551;BME280;65071;53.082;18.218;2023-11-21T06:32:42;101064.58;;;-0.12;87.22
75551;BME280;65071;53.082;18.218;2023-11-21T06:35:13;101064.59;;;-0.09;87.70
75551;BME280;65071;53.082;18.218;2023-11-21T06:37:39;101072.45;;;-0.07;87.36
75551;BME280;65071;53.082;18.218;2023-11-21T06:40:06;101079.48;;;-0.03;87.62
75551;BME280;65071;53.082;18.218;2023-11-21T06:42:34;101084.54;;;-0.02;86.86
75551;BME280;65071;53.082;18.218;2023-11-21T06:45:00;101085.05;;;-0.01;86.54
75551;BME280;65071;53.082;18.218;2023-11-21T06:47:30;101079.92;;;-0.05;86.43
75551;BME280;65071;53.082;18.218;2023-11-21T06:49:56;101085.23;;;-0.05;86.48
75551;BME280;65071;53.082;18.218;2023-11-21T06:52:24;101087.21;;;-0.02;86.93
75551;BME280;65071;53.082;18.218;2023-11-21T06:54:50;101085.94;;;-0.01;86.08
75551;BME280;65071;53.082;18.218;2023-11-21T06:57:17;101089.88;;;-0.02;85.61
75551;BME280;65071;53.082;18.218;2023-11-21T06:59:44;101099.56;;;-0.02;85.69
75551;BME280;65071;53.082;18.218;2023-11-21T07:02:10;101109.95;;;-0.01;85.09
75551;BME280;65071;53.082;18.218;2023-11-21T07:04:36;101105.15;;;-0.04;85.07
75551;BME280;65071;53.082;18.218;2023-11-21T07:07:03;101108.01;;;-0.01;85.43
75551;BME280;65071;53.082;18.218;2023-11-21T07:09:31;101111.30;;;0.01;85.16
75551;BME280;65071;53.082;18.218;2023-11-21T07:11:57;101117.45;;;0.01;85.10
75551;BME280;65071;53.082;18.218;2023-11-21T07:14:24;101120.33;;;0.01;85.33
75551;BME280;65071;53.082;18.218;2023-11-21T07:16:50;101117.85;;;0.01;87.04
75551;BME280;65071;53.082;18.218;2023-11-21T07:19:19;101121.41;;;-0.00;84.63
75551;BME280;65071;53.082;18.218;2023-11-21T07:21:46;101129.52;;;0.04;84.66
75551;BME280;65071;53.082;18.218;2023-11-21T07:24:14;101130.30;;;0.06;84.04
75551;BME280;65071;53.082;18.218;2023-11-21T07:26:40;101130.82;;;0.10;84.53
75551;BME280;65071;53.082;18.218;2023-11-21T07:29:08;101133.42;;;0.14;84.52
75551;BME280;65071;53.082;18.218;2023-11-21T07:31:35;101134.73;;;0.13;84.28
75551;BME280;65071;53.082;18.218;2023-11-21T07:34:02;101139.67;;;0.17;84.26
75551;BME280;65071;53.082;18.218;2023-11-21T07:36:28;101143.31;;;0.21;84.49
75551;BME280;65071;53.082;18.218;2023-11-21T07:38:55;101143.07;;;0.23;84.10
75551;BME280;65071;53.082;18.218;2023-11-21T07:41:21;101148.86;;;0.23;84.06
75551;BME280;65071;53.082;18.218;2023-11-21T07:43:48;101154.88;;;0.20;83.37
75551;BME280;65071;53.082;18.218;2023-11-21T07:46:15;101156.52;;;0.22;83.78
75551;BME280;65071;53.082;18.218;2023-11-21T07:48:42;101164.38;;;0.21;83.51
75551;BME280;65071;53.082;18.218;2023-11-21T07:51:09;101167.16;;;0.22;83.48
75551;BME280;65071;53.082;18.218;2023-11-21T07:53:36;101170.66;;;0.19;83.19
75551;BME280;65071;53.082;18.218;2023-11-21T07:56:05;101174.91;;;0.15;81.80
75551;BME280;65071;53.082;18.218;2023-11-21T07:58:33;101172.06;;;0.09;81.66
75551;BME280;65071;53.082;18.218;2023-11-21T08:01:00;101165.56;;;0.12;82.24
75551;BME280;65071;53.082;18.218;2023-11-21T08:03:26;101172.21;;;0.17;82.19
75551;BME280;65071;53.082;18.218;2023-11-21T08:05:54;101166.83;;;0.22;82.44
75551;BME280;65071;53.082;18.218;2023-11-21T08:08:20;101165.36;;;0.26;82.86
75551;BME280;65071;53.082;18.218;2023-11-21T08:10:47;101170.41;;;0.31;82.80
75551;BME280;65071;53.082;18.218;2023-11-21T08:13:14;101173.30;;;0.30;81.77
75551;BME280;65071;53.082;18.218;2023-11-21T08:15:42;101178.00;;;0.31;81.43
75551;BME280;65071;53.082;18.218;2023-11-21T08:18:12;101173.33;;;0.33;81.53
75551;BME280;65071;53.082;18.218;2023-11-21T08:20:41;101174.75;;;0.29;80.51
75551;BME280;65071;53.082;18.218;2023-11-21T08:23:08;101173.94;;;0.34;80.50
75551;BME280;65071;53.082;18.218;2023-11-21T08:25:34;101170.70;;;0.36;80.06
75551;BME280;65071;53.082;18.218;2023-11-21T08:28:01;101170.44;;;0.40;80.22
75551;BME280;65071;53.082;18.218;2023-11-21T08:30:28;101171.00;;;0.47;80.03
75551;BME280;65071;53.082;18.218;2023-11-21T08:32:56;101173.58;;;0.51;80.30
75551;BME280;65071;53.082;18.218;2023-11-21T08:35:24;101178.14;;;0.49;79.72
75551;BME280;65071;53.082;18.218;2023-11-21T08:37:52;101181.78;;;0.46;79.86
75551;BME280;65071;53.082;18.218;2023-11-21T08:40:21;101182.39;;;0.45;79.56
75551;BME280;65071;53.082;18.218;2023-11-21T08:42:48;101182.95;;;0.38;79.05
75551;BME280;65071;53.082;18.218;2023-11-21T08:45:14;101176.81;;;0.37;79.47
75551;BME280;65071;53.082;18.218;2023-11-21T08:47:41;101176.16;;;0.36;79.54
75551;BME280;65071;53.082;18.218;2023-11-21T08:50:10;101178.05;;;0.43;80.18
75551;BME280;65071;53.082;18.218;2023-11-21T08:52:39;101182.36;;;0.53;80.10
75551;BME280;65071;53.082;18.218;2023-11-21T08:55:07;101186.20;;;0.60;78.71
75551;BME280;65071;53.082;18.218;2023-11-21T08:57:38;101186.06;;;0.60;78.52
75551;BME280;65071;53.082;18.218;2023-11-21T09:00:06;101189.69;;;0.65;78.76
75551;BME280;65071;53.082;18.218;2023-11-21T09:02:40;101187.08;;;0.74;78.97
75551;BME280;65071;53.082;18.218;2023-11-21T09:05:10;101187.81;;;0.80;78.77
75551;BME280;65071;53.082;18.218;2023-11-21T09:07:38;101197.13;;;0.78;77.60
75551;BME280;65071;53.082;18.218;2023-11-21T09:10:06;101197.63;;;0.85;77.85
75551;BME280;65071;53.082;18.218;2023-11-21T09:12:37;101203.44;;;0.93;77.40
75551;BME280;65071;53.082;18.218;2023-11-21T09:15:05;101200.75;;;1.03;77.06
75551;BME280;65071;53.082;18.218;2023-11-21T09:17:32;101197.83;;;1.14;77.25
75551;BME280;65071;53.082;18.218;2023-11-21T09:20:00;101207.48;;;1.16;76.31
75551;BME280;65071;53.082;18.218;2023-11-21T09:22:28;101215.16;;;1.11;75.88
75551;BME280;65071;53.082;18.218;2023-11-21T09:24:57;101219.44;;;1.17;76.37
75551;BME280;65071;53.082;18.218;2023-11-21T09:27:24;101224.53;;;1.21;76.90
75551;BME280;65071;53.082;18.218;2023-11-21T09:29:52;101218.87;;;1.15;76.38
75551;BME280;65071;53.082;18.218;2023-11-21T09:32:20;101214.85;;;1.17;77.21
75551;BME280;65071;53.082;18.218;2023-11-21T09:34:48;101219.80;;;1.14;76.51
75551;BME280;65071;53.082;18.218;2023-11-21T09:37:32;101225.40;;;1.19;77.10
75551;BME280;65071;53.082;18.218;2023-11-21T09:39:59;101231.33;;;1.17;76.09
75551;BME280;65071;53.082;18.218;2023-11-21T09:42:30;101237.11;;;1.22;76.06
75551;BME280;65071;53.082;18.218;2023-11-21T09:45:17;101241.68;;;1.22;76.15
75551;BME280;65071;53.082;18.218;2023-11-21T09:47:46;101249.98;;;1.19;75.73
75551;BME280;65071;53.082;18.218;2023-11-21T09:50:17;101241.78;;;1.17;75.02
75551;BME280;65071;53.082;18.218;2023-11-21T09:53:10;101246.42;;;1.13;75.84
75551;BME280;65071;53.082;18.218;2023-11-21T09:55:43;101243.51;;;0.98;75.43
75551;BME280;65071;53.082;18.218;2023-11-21T09:58:10;101243.54;;;0.94;76.44
75551;BME280;65071;53.082;18.218;2023-11-21T10:00:45;101242.53;;;1.00;76.72
75551;BME280;65071;53.082;18.218;2023-11-21T10:03:13;101243.17;;;1.01;76.09
75551;BME280;65071;53.082;18.218;2023-11-21T10:05:41;101243.09;;;0.96;75.72
75551;BME280;65071;53.082;18.218;2023-11-21T10:08:09;101249.83;;;0.99;76.23
75551;BME280;65071;53.082;18.218;2023-11-21T10:13:06;101247.21;;;1.02;76.97
75551;BME280;65071;53.082;18.218;2023-11-21T10:15:36;101244.94;;;0.98;76.42
75551;BME280;65071;53.082;18.218;2023-11-21T10:18:05;101241.54;;;1.02;76.46
75551;BME280;65071;53.082;18.218;2023-11-21T10:20:33;101239.52;;;1.00;75.87
75551;BME280;65071;53.082;18.218;2023-11-21T10:23:00;101240.30;;;1.02;75.97
75551;BME280;65071;53.082;18.218;2023-11-21T10:25:30;101247.08;;;1.04;76.62
75551;BME280;65071;53.082;18.218;2023-11-21T10:27:59;101248.77;;;1.06;76.19
75551;BME280;65071;53.082;18.218;2023-11-21T10:30:37;101251.48;;;0.98;75.41
75551;BME280;65071;53.082;18.218;2023-11-21T10:33:05;101254.07;;;1.00;75.54
75551;BME280;65071;53.082;18.218;2023-11-21T10:35:44;101260.91;;;0.97;75.70
75551;BME280;65071;53.082;18.218;2023-11-21T10:38:13;101272.02;;;0.98;75.31
75551;BME280;65071;53.082;18.218;2023-11-21T10:40:41;101275.52;;;0.92;74.78
75551;BME280;65071;53.082;18.218;2023-11-21T10:43:09;101274.59;;;0.90;75.27
75551;BME280;65071;53.082;18.218;2023-11-21T10:45:39;101280.14;;;0.92;75.27
75551;BME280;65071;53.082;18.218;2023-11-21T10:48:07;101276.86;;;0.91;75.03
75551;BME280;65071;53.082;18.218;2023-11-21T10:50:35;101272.71;;;0.89;74.76
75551;BME280;65071;53.082;18.218;2023-11-21T10:53:03;101269.59;;;0.91;75.84
75551;BME280;65071;53.082;18.218;2023-11-21T10:55:31;101270.23;;;0.95;76.00
75551;BME280;65071;53.082;18.218;2023-11-21T10:58:02;101275.34;;;0.96;74.76
75551;BME280;65071;53.082;18.218;2023-11-21T11:00:29;101280.39;;;0.97;75.42
75551;BME280;65071;53.082;18.218;2023-11-21T11:02:56;101281.46;;;0.97;75.38
75551;BME280;65071;53.082;18.218;2023-11-21T11:05:23;101281.26;;;0.94;75.62
75551;BME280;65071;53.082;18.218;2023-11-21T11:07:53;101280.05;;;0.97;75.73
75551;BME280;65071;53.082;18.218;2023-11-21T11:10:27;101280.73;;;0.94;75.55
75551;BME280;65071;53.082;18.218;2023-11-21T11:12:56;101278.84;;;0.93;75.32
75551;BME280;65071;53.082;18.218;2023-11-21T11:15:25;101284.27;;;0.95;74.84
75551;BME280;65071;53.082;18.218;2023-11-21T11:17:54;101284.21;;;0.95;75.20
75551;BME280;65071;53.082;18.218;2023-11-21T11:20:33;101288.05;;;0.96;75.64
75551;BME280;65071;53.082;18.218;2023-11-21T11:23:17;101290.92;;;0.96;74.24
75551;BME280;65071;53.082;18.218;2023-11-21T11:28:38;101298.95;;;0.88;74.32
75551;BME280;65071;53.082;18.218;2023-11-21T11:34:12;101300.67;;;0.89;74.52
75551;BME280;65071;53.082;18.218;2023-11-21T11:36:49;101307.67;;;0.91;74.77
75551;BME280;65071;53.082;18.218;2023-11-21T11:39:45;101312.09;;;0.98;74.65
75551;BME280;65071;53.082;18.218;2023-11-21T11:42:14;101312.27;;;0.94;74.08
75551;BME280;65071;53.082;18.218;2023-11-21T11:44:50;101316.31;;;0.98;74.92
75551;BME280;65071;53.082;18.218;2023-11-21T11:47:22;101322.19;;;0.97;74.18
75551;BME280;65071;53.082;18.218;2023-11-21T11:50:04;101327.69;;;1.00;74.25
75551;BME280;65071;53.082;18.218;2023-11-21T11:52:39;101334.82;;;1.03;74.65
75551;BME280;65071;53.082;18.218;2023-11-21T11:55:09;101337.75;;;1.05;75.16
75551;BME280;65071;53.082;18.218;2023-11-21T11:57:42;101345.45;;;1.06;74.87
75551;BME280;65071;53.082;18.218;2023-11-21T12:00:13;101347.73;;;1.07;74.86
75551;BME280;65071;53.082;18.218;2023-11-21T12:02:45;101348.46;;;1.06;74.42
75551;BME280;65071;53.082;18.218;2023-11-21T12:05:14;101353.27;;;1.06;73.87
75551;BME280;65071;53.082;18.218;2023-11-21T12:07:48;101354.60;;;1.11;74.34
75551;BME280;65071;53.082;18.218;2023-11-21T12:10:18;101352.27;;;1.15;74.68
75551;BME280;65071;53.082;18.218;2023-11-21T12:12:47;101355.27;;;1.08;73.66
75551;BME280;65071;53.082;18.218;2023-11-21T12:15:14;101358.08;;;1.05;73.57
75551;BME280;65071;53.082;18.218;2023-11-21T12:17:43;101355.55;;;1.06;73.66
75551;BME280;65071;53.082;18.218;2023-11-21T12:20:15;101354.80;;;1.07;73.51
75551;BME280;65071;53.082;18.218;2023-11-21T12:22:45;101354.72;;;1.05;73.35
75551;BME280;65071;53.082;18.218;2023-11-21T12:25:18;101354.91;;;1.01;73.91
75551;BME280;65071;53.082;18.218;2023-11-21T12:27:46;101356.00;;;1.05;74.19
75551;BME280;65071;53.082;18.218;2023-11-21T12:30:13;101358.20;;;1.03;73.78
75551;BME280;65071;53.082;18.218;2023-11-21T12:32:40;101362.36;;;0.98;73.82
75551;BME280;65071;53.082;18.218;2023-11-21T12:35:10;101359.88;;;0.98;73.84
75551;BME280;65071;53.082;18.218;2023-11-21T12:37:40;101358.14;;;0.94;73.45
75551;BME280;65071;53.082;18.218;2023-11-21T12:40:07;101357.25;;;0.91;74.05
75551;BME280;65071;53.082;18.218;2023-11-21T12:42:35;101349.63;;;0.94;74.03
75551;BME280;65071;53.082;18.218;2023-11-21T12:47:44;101357.81;;;1.03;74.69
75551;BME280;65071;53.082;18.218;2023-11-21T12:50:23;101363.18;;;1.06;74.61
75551;BME280;65071;53.082;18.218;2023-11-21T12:52:52;101364.35;;;1.08;74.68
75551;BME280;65071;53.082;18.218;2023-11-21T12:55:21;101368.12;;;1.03;73.87
75551;BME280;65071;53.082;18.218;2023-11-21T12:57:52;101370.17;;;0.97;73.70
75551;BME280;65071;53.082;18.218;2023-11-21T13:00:28;101374.05;;;0.98;73.57
75551;BME280;65071;53.082;18.218;2023-11-21T13:02:58;101381.95;;;0.99;74.11
75551;BME280;65071;53.082;18.218;2023-11-21T13:05:31;101384.83;;;1.02;74.53
75551;BME280;65071;53.082;18.218;2023-11-21T13:08:01;101387.54;;;1.04;74.22